Time,TemperatureF,DewpointF,PressureIn,WindDirection,WindDirectionDegrees,WindSpeedMPH,WindSpeedGustMPH,Humidity,HourlyPrecipIn,Conditions,Clouds,dailyrainin,SolarRadiationWatts/m^2,SoftwareType,DateUTC
2013-06-22 10:02:00,82.0,76.0,-100.00,SSE,149,4.0,6.0,82,0.00,,,0.00,396.000000,,2013-06-22 15:02:00,
2013-06-22 10:22:00,85.0,76.0,-100.00,South,169,5.0,10.0,74,0.00,,,0.00,554.000000,,2013-06-22 15:22:00,
2013-06-22 10:34:00,85.0,76.0,-100.00,South,169,5.0,10.0,74,0.00,,,0.00,554.000000,,2013-06-22 15:34:00,
2013-06-22 10:43:00,85.0,76.0,-100.00,South,169,5.0,10.0,74,0.00,,,0.00,554.000000,,2013-06-22 15:43:00,
2013-06-22 10:53:00,85.0,76.0,-100.00,South,169,5.0,10.0,74,0.00,,,0.00,554.000000,,2013-06-22 15:53:00,
2013-06-22 11:02:00,85.0,76.0,-100.00,South,169,5.0,10.0,74,0.00,,,0.00,554.000000,,2013-06-22 16:02:00,
2013-06-22 11:22:00,87.0,74.0,-100.00,SSW,195,4.0,10.0,66,0.00,,,0.00,753.000000,,2013-06-22 16:22:00,
2013-06-22 11:34:00,87.0,74.0,-100.00,SSW,195,4.0,10.0,66,0.00,,,0.00,753.000000,,2013-06-22 16:34:00,
2013-06-22 11:43:00,87.0,74.0,-100.00,SSW,195,4.0,10.0,66,0.00,,,0.00,753.000000,,2013-06-22 16:43:00,
2013-06-22 11:52:00,87.0,74.0,-100.00,SSW,195,4.0,10.0,66,0.00,,,0.00,753.000000,,2013-06-22 16:52:00,
2013-06-22 12:02:00,87.0,74.0,-100.00,SSW,195,4.0,10.0,66,0.00,,,0.00,753.000000,,2013-06-22 17:02:00,
2013-06-22 12:22:00,89.0,72.0,-100.00,SSW,201,5.0,10.0,58,0.00,,,0.00,911.000000,,2013-06-22 17:22:00,
2013-06-22 12:34:00,89.0,72.0,-100.00,SSW,201,5.0,10.0,58,0.00,,,0.00,911.000000,,2013-06-22 17:34:00,
2013-06-22 12:43:00,89.0,72.0,-100.00,SSW,201,5.0,10.0,58,0.00,,,0.00,911.000000,,2013-06-22 17:43:00,
2013-06-22 12:52:00,89.0,72.0,-100.00,SSW,201,5.0,10.0,58,0.00,,,0.00,911.000000,,2013-06-22 17:52:00,
2013-06-22 13:02:00,89.0,72.0,-100.00,SSW,201,5.0,10.0,58,0.00,,,0.00,911.000000,,2013-06-22 18:02:00,
2013-06-22 13:23:00,90.0,72.0,-100.00,SSE,157,6.0,11.0,56,0.00,,,0.00,1038.000000,,2013-06-22 18:23:00,
2013-06-22 13:34:00,90.0,72.0,-100.00,SSE,157,6.0,11.0,56,0.00,,,0.00,1038.000000,,2013-06-22 18:34:00,
2013-06-22 13:43:00,90.0,72.0,-100.00,SSE,157,6.0,11.0,56,0.00,,,0.00,1038.000000,,2013-06-22 18:43:00,
2013-06-22 13:52:00,90.0,72.0,-100.00,SSE,157,6.0,11.0,56,0.00,,,0.00,1038.000000,,2013-06-22 18:52:00,
2013-06-22 14:01:00,90.0,72.0,-100.00,SSE,157,6.0,11.0,56,0.00,,,0.00,1038.000000,,2013-06-22 19:01:00,
2013-06-22 14:22:00,90.0,72.0,-100.00,South,184,5.0,11.0,55,0.00,,,0.00,935.000000,,2013-06-22 19:22:00,
2013-06-22 14:33:00,90.0,72.0,-100.00,South,184,5.0,11.0,55,0.00,,,0.00,935.000000,,2013-06-22 19:33:00,
2013-06-22 14:43:00,90.0,72.0,-100.00,South,184,5.0,11.0,55,0.00,,,0.00,935.000000,,2013-06-22 19:43:00,
2013-06-22 14:53:00,90.0,72.0,-100.00,South,184,5.0,11.0,55,0.00,,,0.00,935.000000,,2013-06-22 19:53:00,
2013-06-22 15:02:00,90.0,72.0,-100.00,South,184,5.0,11.0,55,0.00,,,0.00,935.000000,,2013-06-22 20:02:00,
2013-06-22 15:22:00,92.0,72.0,-100.00,South,173,5.0,10.0,52,0.00,,,0.00,955.000000,,2013-06-22 20:22:00,
2013-06-22 15:34:00,92.0,72.0,-100.00,South,173,5.0,10.0,52,0.00,,,0.00,955.000000,,2013-06-22 20:34:00,
2013-06-22 15:43:00,92.0,72.0,-100.00,South,173,5.0,10.0,52,0.00,,,0.00,955.000000,,2013-06-22 20:43:00,
2013-06-22 15:53:00,92.0,72.0,-100.00,South,173,5.0,10.0,52,0.00,,,0.00,955.000000,,2013-06-22 20:53:00,
2013-06-22 16:01:00,92.0,72.0,-100.00,South,173,5.0,10.0,52,0.00,,,0.00,955.000000,,2013-06-22 21:01:00,
2013-06-22 16:22:00,94.0,74.0,-100.00,South,188,4.0,10.0,52,0.00,,,0.00,747.000000,,2013-06-22 21:22:00,
2013-06-22 16:34:00,94.0,74.0,-100.00,South,188,4.0,10.0,52,0.00,,,0.00,747.000000,,2013-06-22 21:34:00,
2013-06-22 16:43:00,94.0,74.0,-100.00,South,188,4.0,10.0,52,0.00,,,0.00,747.000000,,2013-06-22 21:43:00,
2013-06-22 16:53:00,94.0,74.0,-100.00,South,188,4.0,10.0,52,0.00,,,0.00,747.000000,,2013-06-22 21:53:00,
2013-06-22 17:02:00,94.0,74.0,-100.00,South,188,4.0,10.0,52,0.00,,,0.00,747.000000,,2013-06-22 22:02:00,
2013-06-22 17:23:00,93.0,72.0,-100.00,South,170,4.0,9.0,50,0.00,,,0.00,594.000000,,2013-06-22 22:23:00,
2013-06-22 17:33:00,93.0,72.0,-100.00,South,170,4.0,9.0,50,0.00,,,0.00,594.000000,,2013-06-22 22:33:00,
2013-06-22 17:43:00,93.0,72.0,-100.00,South,170,4.0,9.0,50,0.00,,,0.00,594.000000,,2013-06-22 22:43:00,
2013-06-22 17:52:00,93.0,72.0,-100.00,South,170,4.0,9.0,50,0.00,,,0.00,594.000000,,2013-06-22 22:52:00,
2013-06-22 18:01:00,93.0,72.0,-100.00,South,170,4.0,9.0,50,0.00,,,0.00,594.000000,,2013-06-22 23:01:00,
2013-06-22 18:22:00,93.0,70.0,-100.00,South,174,4.0,8.0,48,0.00,,,0.00,532.000000,,2013-06-22 23:22:00,
2013-06-22 18:34:00,93.0,70.0,-100.00,South,174,4.0,8.0,48,0.00,,,0.00,532.000000,,2013-06-22 23:34:00,
2013-06-22 18:43:00,93.0,70.0,-100.00,South,174,4.0,8.0,48,0.00,,,0.00,532.000000,,2013-06-22 23:43:00,
2013-06-22 18:52:00,93.0,70.0,-100.00,South,174,4.0,8.0,48,0.00,,,0.00,532.000000,,2013-06-22 23:52:00,
2013-06-22 19:01:00,93.0,70.0,-100.00,South,174,4.0,8.0,48,0.00,,,0.00,532.000000,,2013-06-23 00:01:00,
2013-06-22 19:22:00,89.0,71.0,-100.00,SSE,159,6.0,10.0,55,0.00,,,0.00,298.000000,,2013-06-23 00:22:00,
2013-06-22 19:34:00,89.0,71.0,-100.00,SSE,159,6.0,10.0,55,0.00,,,0.00,298.000000,,2013-06-23 00:34:00,
2013-06-22 19:42:00,89.0,71.0,-100.00,SSE,159,6.0,10.0,55,0.00,,,0.00,298.000000,,2013-06-23 00:42:00,
2013-06-22 19:53:00,89.0,71.0,-100.00,SSE,159,6.0,10.0,55,0.00,,,0.00,298.000000,,2013-06-23 00:53:00,
2013-06-22 20:01:00,89.0,71.0,-100.00,SSE,159,6.0,10.0,55,0.00,,,0.00,298.000000,,2013-06-23 01:01:00,
2013-06-22 20:22:00,86.0,74.0,-100.00,SSE,147,3.0,8.0,68,0.00,,,0.00,92.000000,,2013-06-23 01:22:00,
2013-06-22 20:32:00,86.0,74.0,-100.00,SSE,147,3.0,8.0,68,0.00,,,0.00,92.000000,,2013-06-23 01:32:00,
2013-06-22 20:42:00,86.0,74.0,-100.00,SSE,147,3.0,8.0,68,0.00,,,0.00,92.000000,,2013-06-23 01:42:00,
2013-06-22 20:52:00,86.0,74.0,-100.00,SSE,147,3.0,8.0,68,0.00,,,0.00,92.000000,,2013-06-23 01:52:00,
2013-06-22 21:01:00,86.0,74.0,-100.00,SSE,147,3.0,8.0,68,0.00,,,0.00,92.000000,,2013-06-23 02:01:00,
2013-06-22 21:21:00,83.0,73.0,-100.00,SSE,161,3.0,6.0,71,0.00,,,0.00,5.000000,,2013-06-23 02:21:00,
2013-06-22 21:31:00,83.0,73.0,-100.00,SSE,161,3.0,6.0,71,0.00,,,0.00,5.000000,,2013-06-23 02:31:00,
2013-06-22 21:41:00,83.0,73.0,-100.00,SSE,161,3.0,6.0,71,0.00,,,0.00,5.000000,,2013-06-23 02:41:00,
2013-06-22 21:52:00,83.0,73.0,-100.00,SSE,161,3.0,6.0,71,0.00,,,0.00,5.000000,,2013-06-23 02:52:00,
2013-06-22 22:01:00,83.0,73.0,-100.00,SSE,161,3.0,6.0,71,0.00,,,0.00,5.000000,,2013-06-23 03:01:00,
2013-06-22 22:21:00,82.0,73.0,-100.00,SSE,160,3.0,6.0,75,0.00,,,0.00,0.000000,,2013-06-23 03:21:00,
2013-06-22 22:31:00,82.0,73.0,-100.00,SSE,160,3.0,6.0,75,0.00,,,0.00,0.000000,,2013-06-23 03:31:00,
2013-06-22 22:41:00,82.0,73.0,-100.00,SSE,160,3.0,6.0,75,0.00,,,0.00,0.000000,,2013-06-23 03:41:00,
2013-06-22 22:52:00,82.0,73.0,-100.00,SSE,160,3.0,6.0,75,0.00,,,0.00,0.000000,,2013-06-23 03:52:00,
2013-06-22 23:01:00,82.0,73.0,-100.00,SSE,160,3.0,6.0,75,0.00,,,0.00,0.000000,,2013-06-23 04:01:00,
2013-06-22 23:21:00,80.0,73.0,-100.00,SSE,155,3.0,6.0,79,0.00,,,0.00,0.000000,,2013-06-23 04:21:00,
2013-06-22 23:31:00,80.0,73.0,-100.00,SSE,155,3.0,6.0,79,0.00,,,0.00,0.000000,,2013-06-23 04:31:00,
2013-06-22 23:42:00,80.0,73.0,-100.00,SSE,155,3.0,6.0,79,0.00,,,0.00,0.000000,,2013-06-23 04:42:00,
2013-06-22 23:52:00,80.0,73.0,-100.00,SSE,155,3.0,6.0,79,0.00,,,0.00,0.000000,,2013-06-23 04:52:00,